Time;durP1;ratioP1;P1;durP2;ratioP2;P2;SDS_P1;SDS_P2;PMS_P1;PMS_P2;Temp;Humidity;BMP_temperature;BMP_pressure;BME280_temperature;BME280_humidity;BME280_pressure;Samples;Min_cycle;Max_cycle;Signal;HPM_P1;HPM_P2
2023/03/03 00:01:25;;;;;;;7.00;5.45;;;19.60;31.70;;;;;;5050607;28;20116;-50
2023/03/03 00:03:51;;;;;;;6.88;5.07;;;19.60;31.70;;;;;;5052641;28;20375;-48
2023/03/03 00:06:18;;;;;;;6.25;4.80;;;19.70;32.40;;;;;;5053253;28;20025;-54
2023/03/03 00:08:44;;;;;;;7.28;5.07;;;19.60;31.60;;;;;;5052915;28;20120;-50
2023/03/03 00:11:11;;;;;;;6.53;5.30;;;19.60;31.60;;;;;;5053279;28;20035;-50
2023/03/03 00:13:49;;;;;;;5.70;4.50;;;19.60;31.60;;;;;;5052828;28;20508;-46
2023/03/03 00:16:28;;;;;;;6.95;5.20;;;19.60;31.60;;;;;;5051872;28;20025;-47
2023/03/03 00:18:56;;;;;;;6.28;4.88;;;19.60;31.60;;;;;;5048849;28;20047;-47
2023/03/03 00:21:30;;;;;;;5.30;4.72;;;19.60;31.60;;;;;;5051048;28;20037;-49
2023/03/03 00:24:23;;;;;;;6.30;5.32;;;19.60;31.60;;;;;;5052541;28;20053;-49
2023/03/03 00:26:56;;;;;;;5.60;4.95;;;19.60;31.60;;;;;;5046388;28;20079;-52
2023/03/03 00:29:34;;;;;;;6.45;5.00;;;19.60;32.20;;;;;;5051770;28;20025;-53
2023/03/03 00:32:29;;;;;;;5.85;4.90;;;19.60;31.60;;;;;;5052557;28;20029;-53
2023/03/03 00:35:00;;;;;;;7.07;5.18;;;19.60;31.50;;;;;;5050568;28;20048;-49
2023/03/03 00:37:33;;;;;;;7.28;5.07;;;19.60;31.60;;;;;;5052703;28;20029;-50
2023/03/03 00:40:22;;;;;;;6.22;4.93;;;19.60;31.60;;;;;;5052880;28;20025;-50
2023/03/03 00:42:54;;;;;;;6.80;5.45;;;19.60;31.60;;;;;;5050988;28;20032;-48
2023/03/03 00:45:43;;;;;;;6.25;5.10;;;19.50;31.50;;;;;;5049977;28;20061;-48
2023/03/03 00:48:18;;;;;;;5.95;4.70;;;19.50;31.50;;;;;;5049757;28;20025;-49
2023/03/03 00:50:44;;;;;;;5.00;4.43;;;19.50;31.50;;;;;;5046962;28;20475;-47
2023/03/03 00:53:18;;;;;;;5.90;4.50;;;19.50;31.60;;;;;;5048755;28;20034;-50
2023/03/03 00:55:46;;;;;;;9.48;4.63;;;19.50;31.50;;;;;;5050824;28;20047;-49
2023/03/03 00:58:13;;;;;;;6.43;4.88;;;19.50;31.60;;;;;;5051563;28;20553;-49
2023/03/03 01:00:43;;;;;;;6.25;5.18;;;19.50;31.60;;;;;;5046783;28;20029;-48
2023/03/03 01:03:18;;;;;;;7.22;4.28;;;19.50;31.60;;;;;;5046769;28;20040;-50
2023/03/03 01:05:44;;;;;;;5.60;4.20;;;19.50;31.60;;;;;;5044455;28;20037;-51
2023/03/03 01:08:10;;;;;;;5.32;4.20;;;19.50;31.60;;;;;;5042631;28;20456;-49
2023/03/03 01:10:40;;;;;;;6.45;4.47;;;19.50;31.50;;;;;;5054826;28;20033;-53
2023/03/03 01:13:08;;;;;;;5.82;4.60;;;19.50;31.50;;;;;;5050317;28;20056;-51
2023/03/03 01:15:34;;;;;;;5.53;4.40;;;19.50;31.50;;;;;;5052262;28;20174;-53
2023/03/03 01:18:00;;;;;;;5.65;4.03;;;19.50;32.00;;;;;;5048313;28;20523;-48
2023/03/03 01:20:26;;;;;;;5.15;4.43;;;19.50;31.50;;;;;;5045737;28;20107;-51
2023/03/03 01:22:52;;;;;;;7.03;5.10;;;19.50;31.50;;;;;;5050999;28;20067;-47
2023/03/03 01:25:17;;;;;;;6.10;4.55;;;19.50;31.50;;;;;;5050428;28;20033;-48
2023/03/03 01:27:43;;;;;;;5.68;4.47;;;19.50;31.50;;;;;;5051677;28;20492;-49
2023/03/03 01:30:09;;;;;;;5.32;4.30;;;19.50;31.60;;;;;;5053407;28;20131;-48
2023/03/03 01:32:36;;;;;;;5.72;4.35;;;19.50;31.60;;;;;;5053067;28;21664;-51
2023/03/03 01:35:02;;;;;;;7.00;4.65;;;19.50;31.60;;;;;;5054549;28;20191;-50
2023/03/03 01:37:27;;;;;;;5.35;4.18;;;19.50;31.60;;;;;;5053827;28;20491;-49
2023/03/03 01:39:54;;;;;;;5.13;4.32;;;19.50;31.60;;;;;;5054481;28;20029;-47
2023/03/03 01:42:20;;;;;;;5.63;4.25;;;19.50;31.50;;;;;;5052966;28;20048;-48
2023/03/03 01:44:47;;;;;;;6.88;4.00;;;19.50;31.50;;;;;;5054062;28;20025;-46
2023/03/03 01:47:17;;;;;;;4.72;3.92;;;19.40;31.50;;;;;;5053907;28;20024;-48
2023/03/03 01:49:48;;;;;;;5.18;4.30;;;19.40;31.50;;;;;;5052649;28;20029;-49
2023/03/03 01:52:17;;;;;;;5.00;4.13;;;19.40;31.50;;;;;;5051897;28;20082;-52
2023/03/03 01:54:49;;;;;;;5.57;4.25;;;19.40;31.50;;;;;;5054510;28;20511;-48
2023/03/03 01:57:24;;;;;;;7.22;3.97;;;19.40;31.50;;;;;;5054150;28;20025;-48
2023/03/03 01:59:51;;;;;;;5.38;4.43;;;19.40;31.50;;;;;;5053659;28;20049;-48
2023/03/03 02:02:18;;;;;;;4.72;3.95;;;19.40;31.50;;;;;;5053555;28;20048;-50
2023/03/03 02:04:44;;;;;;;5.60;4.22;;;19.40;31.50;;;;;;5053707;28;20029;-48
2023/03/03 02:07:13;;;;;;;4.45;3.70;;;19.40;31.50;;;;;;5055412;28;20025;-50
2023/03/03 02:10:03;;;;;;;5.10;3.70;;;19.40;31.50;;;;;;5053600;28;20494;-49
2023/03/03 02:12:49;;;;;;;5.25;3.97;;;19.40;31.50;;;;;;5054209;28;20515;-50
2023/03/03 02:15:25;;;;;;;4.60;3.63;;;19.40;31.50;;;;;;5053580;28;20037;-47
2023/03/03 02:18:11;;;;;;;4.35;3.60;;;19.40;31.50;;;;;;5051222;28;20056;-49
2023/03/03 02:20:48;;;;;;;5.68;3.90;;;19.40;31.50;;;;;;5052460;28;20445;-50
2023/03/03 02:23:20;;;;;;;4.90;3.75;;;19.40;31.50;;;;;;5054743;28;20124;-51
2023/03/03 02:25:56;;;;;;;4.75;3.85;;;19.40;31.50;;;;;;5053645;28;20044;-49
2023/03/03 02:28:26;;;;;;;4.50;3.67;;;19.40;31.50;;;;;;5035934;28;20017;-48
2023/03/03 02:30:57;;;;;;;4.90;3.60;;;19.40;31.60;;;;;;5053682;28;20112;-51
2023/03/03 02:33:24;;;;;;;5.13;3.80;;;19.40;31.60;;;;;;5049971;28;20431;-47
2023/03/03 02:35:51;;;;;;;5.38;3.92;;;19.30;31.50;;;;;;5052613;28;20060;-49
2023/03/03 02:38:32;;;;;;;5.47;4.10;;;19.30;31.60;;;;;;5053715;28;21607;-47
2023/03/03 02:41:03;;;;;;;5.25;4.05;;;19.40;31.60;;;;;;5036184;28;20043;-48
2023/03/03 02:43:55;;;;;;;4.97;4.05;;;19.40;31.60;;;;;;5050715;28;20040;-48
2023/03/03 02:46:21;;;;;;;5.22;4.00;;;19.30;31.60;;;;;;5061093;28;20059;-52
2023/03/03 02:48:47;;;;;;;4.63;3.85;;;19.30;31.60;;;;;;5051297;28;20120;-55
2023/03/03 02:51:13;;;;;;;4.07;3.22;;;19.30;31.60;;;;;;5052487;28;20040;-49
2023/03/03 02:53:39;;;;;;;4.63;4.00;;;19.30;31.60;;;;;;5051943;28;20052;-50
2023/03/03 02:56:08;;;;;;;4.25;3.45;;;19.30;31.60;;;;;;5050594;28;20057;-52
2023/03/03 02:58:35;;;;;;;4.93;3.97;;;19.30;31.70;;;;;;5050268;28;20041;-50
2023/03/03 03:01:01;;;;;;;6.07;3.83;;;19.30;31.70;;;;;;5051002;28;20508;-48
2023/03/03 03:03:27;;;;;;;4.97;3.70;;;19.30;31.70;;;;;;5049518;28;20103;-50
2023/03/03 03:05:54;;;;;;;4.32;3.42;;;19.30;31.70;;;;;;5075282;28;20026;-47
2023/03/03 03:08:21;;;;;;;4.03;3.10;;;19.30;31.60;;;;;;5052485;28;20021;-47
2023/03/03 03:10:48;;;;;;;4.65;3.35;;;19.30;31.60;;;;;;5046240;28;20040;-48
2023/03/03 03:13:14;;;;;;;4.03;3.35;;;19.30;31.60;;;;;;5048218;28;20055;-52
2023/03/03 03:15:40;;;;;;;4.85;3.40;;;19.30;31.60;;;;;;5052335;28;20029;-48
2023/03/03 03:18:07;;;;;;;5.10;3.80;;;19.30;31.60;;;;;;5051450;28;20044;-50
2023/03/03 03:20:38;;;;;;;4.20;3.42;;;19.30;31.50;;;;;;5051482;28;20479;-50
2023/03/03 03:23:05;;;;;;;4.43;3.58;;;19.30;31.60;;;;;;5051529;28;20119;-50
2023/03/03 03:25:31;;;;;;;4.18;3.42;;;19.30;31.50;;;;;;5049789;28;20441;-50
2023/03/03 03:27:57;;;;;;;4.50;3.40;;;19.30;31.50;;;;;;5068708;28;20044;-49
2023/03/03 03:30:23;;;;;;;4.72;3.28;;;19.30;31.50;;;;;;5051472;28;20017;-47
2023/03/03 03:32:50;;;;;;;4.15;3.25;;;19.30;31.60;;;;;;5051878;28;20028;-50
2023/03/03 03:35:16;;;;;;;5.30;3.47;;;19.20;31.50;;;;;;5051108;28;20352;-51
2023/03/03 03:37:43;;;;;;;5.22;3.53;;;19.30;31.60;;;;;;5051856;28;20025;-48
2023/03/03 03:40:10;;;;;;;4.07;3.13;;;19.20;31.50;;;;;;5049004;28;20040;-49
2023/03/03 03:42:39;;;;;;;4.32;3.60;;;19.30;31.60;;;;;;5052651;28;20041;-49
2023/03/03 03:45:06;;;;;;;4.30;3.38;;;19.20;31.50;;;;;;5051681;28;20491;-50
2023/03/03 03:47:32;;;;;;;4.47;3.20;;;19.20;31.50;;;;;;5053245;28;20024;-48
2023/03/03 03:49:58;;;;;;;5.07;3.58;;;19.20;31.60;;;;;;5050453;28;20029;-49
2023/03/03 03:52:25;;;;;;;4.50;3.40;;;19.20;31.50;;;;;;5050702;28;20067;-52
2023/03/03 03:54:51;;;;;;;3.88;3.35;;;19.20;31.50;;;;;;5051384;28;20029;-49
2023/03/03 03:57:17;;;;;;;4.50;3.42;;;19.20;31.50;;;;;;5050344;28;20108;-48
2023/03/03 03:59:43;;;;;;;3.53;3.00;;;19.20;31.50;;;;;;5051970;28;20036;-48
2023/03/03 04:02:09;;;;;;;4.60;3.20;;;19.20;31.50;;;;;;5051008;28;20025;-48
2023/03/03 04:04:35;;;;;;;4.72;3.65;;;19.20;31.60;;;;;;5051163;28;20103;-51
2023/03/03 04:07:01;;;;;;;5.75;3.38;;;19.20;31.60;;;;;;5051623;28;20025;-50
2023/03/03 04:09:27;;;;;;;5.28;3.80;;;19.20;31.60;;;;;;5051175;28;20036;-52
2023/03/03 04:11:53;;;;;;;4.93;3.70;;;19.20;31.60;;;;;;5051724;28;20048;-51
2023/03/03 04:14:19;;;;;;;4.57;3.47;;;19.20;31.60;;;;;;5048847;28;20057;-48
2023/03/03 04:16:45;;;;;;;4.50;3.60;;;19.20;31.50;;;;;;5045461;28;20037;-49
2023/03/03 04:19:11;;;;;;;5.07;3.83;;;19.20;31.50;;;;;;5040028;28;20120;-49
2023/03/03 04:21:40;;;;;;;3.92;2.88;;;19.20;31.50;;;;;;5049128;28;20463;-47
2023/03/03 04:24:06;;;;;;;4.88;3.40;;;19.20;31.60;;;;;;5051389;28;20047;-49
2023/03/03 04:26:33;;;;;;;5.13;3.90;;;19.20;31.60;;;;;;5051530;28;20021;-49
2023/03/03 04:29:01;;;;;;;5.30;3.88;;;19.20;31.60;;;;;;5052458;28;20032;-46
2023/03/03 04:31:27;;;;;;;4.07;3.40;;;19.20;31.60;;;;;;5035313;28;20021;-50
2023/03/03 04:33:53;;;;;;;3.58;3.13;;;19.20;31.50;;;;;;5053495;28;20048;-50
2023/03/03 04:36:21;;;;;;;5.20;3.70;;;19.20;31.50;;;;;;5051693;28;20041;-53
2023/03/03 04:38:48;;;;;;;5.03;3.67;;;19.20;31.60;;;;;;5052203;28;20126;-52
2023/03/03 04:41:14;;;;;;;4.80;3.55;;;19.20;31.60;;;;;;5051790;28;20186;-47
2023/03/03 04:43:41;;;;;;;5.18;3.80;;;19.20;31.60;;;;;;5051420;28;20021;-49
2023/03/03 04:46:08;;;;;;;4.70;3.40;;;19.20;31.50;;;;;;5051945;28;20032;-50
2023/03/03 04:48:37;;;;;;;5.68;3.65;;;19.10;31.50;;;;;;5049497;28;20090;-51
2023/03/03 04:51:03;;;;;;;4.93;3.80;;;19.10;31.50;;;;;;5051539;28;20116;-50
2023/03/03 04:53:31;;;;;;;5.45;4.00;;;19.10;31.80;;;;;;5051518;28;20032;-48
2023/03/03 04:55:57;;;;;;;4.35;3.63;;;19.20;31.60;;;;;;5050985;28;20112;-49
2023/03/03 04:58:24;;;;;;;4.05;3.33;;;19.10;31.60;;;;;;5049596;28;20057;-48
2023/03/03 05:00:56;;;;;;;4.97;3.58;;;19.10;31.60;;;;;;5051337;28;20033;-52
2023/03/03 05:03:23;;;;;;;5.40;4.10;;;19.10;31.50;;;;;;5052855;28;20098;-48
2023/03/03 05:05:49;;;;;;;4.55;3.30;;;19.10;31.50;;;;;;5054002;28;20078;-53
2023/03/03 05:08:15;;;;;;;5.22;3.90;;;19.10;31.50;;;;;;5055815;28;20352;-52
2023/03/03 05:10:40;;;;;;;4.30;3.40;;;19.10;31.60;;;;;;5056171;28;20059;-52
2023/03/03 05:13:08;;;;;;;5.07;3.70;;;19.10;31.60;;;;;;5054487;28;20084;-47
2023/03/03 05:15:33;;;;;;;4.20;3.42;;;19.10;31.60;;;;;;5038882;28;20021;-47
2023/03/03 05:17:59;;;;;;;4.47;3.45;;;19.10;31.60;;;;;;5055775;28;20094;-50
2023/03/03 05:20:25;;;;;;;5.13;4.10;;;19.10;31.60;;;;;;5056240;28;20116;-49
2023/03/03 05:22:51;;;;;;;5.18;3.90;;;19.10;31.60;;;;;;5055030;28;20119;-48
2023/03/03 05:25:17;;;;;;;5.10;3.65;;;19.10;31.60;;;;;;5051680;28;20059;-50
2023/03/03 05:27:43;;;;;;;4.82;3.80;;;19.10;31.70;;;;;;5049550;28;20025;-49
2023/03/03 05:30:10;;;;;;;5.43;3.83;;;19.10;31.70;;;;;;5054971;28;20471;-48
2023/03/03 05:32:36;;;;;;;6.15;4.05;;;19.10;31.90;;;;;;5054811;28;20021;-50
2023/03/03 05:35:04;;;;;;;5.68;4.22;;;19.10;32.00;;;;;;5054071;28;20025;-46
2023/03/03 05:37:30;;;;;;;6.03;3.97;;;19.10;32.00;;;;;;5054531;28;20025;-47
2023/03/03 05:39:55;;;;;;;5.47;3.75;;;19.10;32.00;;;;;;5055296;28;20113;-49
2023/03/03 05:42:21;;;;;;;5.28;3.40;;;19.10;32.00;;;;;;5055906;28;20039;-51
2023/03/03 05:44:47;;;;;;;4.05;3.33;;;19.10;32.00;;;;;;5055024;28;20040;-52
2023/03/03 05:47:13;;;;;;;5.13;3.70;;;19.10;32.00;;;;;;5054530;28;20033;-53
2023/03/03 05:49:39;;;;;;;4.50;3.20;;;19.10;31.90;;;;;;5050197;28;20025;-53
2023/03/03 05:52:05;;;;;;;4.63;3.85;;;19.10;32.00;;;;;;5053031;28;20075;-51
2023/03/03 05:54:31;;;;;;;4.45;3.33;;;19.10;31.90;;;;;;5054285;28;20036;-49
2023/03/03 05:56:57;;;;;;;6.00;3.90;;;19.10;31.90;;;;;;5054102;28;20065;-47
2023/03/03 05:59:23;;;;;;;3.70;2.97;;;19.10;31.90;;;;;;5053663;28;20060;-48
2023/03/03 06:01:49;;;;;;;5.03;3.13;;;19.10;31.90;;;;;;5054799;28;20032;-48
2023/03/03 06:04:15;;;;;;;7.15;3.30;;;19.00;31.90;;;;;;5055106;28;20082;-52
2023/03/03 06:06:41;;;;;;;4.45;3.22;;;19.10;31.90;;;;;;5054235;28;20445;-52
2023/03/03 06:09:07;;;;;;;4.28;3.10;;;19.10;31.90;;;;;;5053758;28;20032;-51
2023/03/03 06:11:33;;;;;;;6.20;2.88;;;19.10;31.90;;;;;;5054870;28;20021;-54
2023/03/03 06:13:59;;;;;;;3.55;2.80;;;19.10;31.90;;;;;;5053890;28;20128;-54
2023/03/03 06:16:25;;;;;;;4.72;2.80;;;19.00;31.80;;;;;;5054957;28;20055;-50
2023/03/03 06:18:50;;;;;;;4.28;2.88;;;19.00;31.80;;;;;;5054434;28;20123;-48
2023/03/03 06:21:16;;;;;;;3.33;2.55;;;19.00;31.90;;;;;;5037181;28;20041;-49
2023/03/03 06:23:42;;;;;;;4.28;2.70;;;19.00;31.90;;;;;;5055028;28;20040;-50
2023/03/03 06:26:08;;;;;;;3.90;2.58;;;19.00;31.90;;;;;;5054565;28;20021;-50
2023/03/03 06:28:34;;;;;;;4.03;2.65;;;19.00;31.80;;;;;;5054420;28;20338;-48
2023/03/03 06:31:00;;;;;;;4.15;2.70;;;19.00;31.90;;;;;;5053417;28;20044;-49
2023/03/03 06:33:26;;;;;;;3.35;2.53;;;19.00;31.90;;;;;;5055311;28;20128;-53
2023/03/03 06:35:54;;;;;;;3.10;2.40;;;19.00;31.90;;;;;;5054910;28;20025;-54
2023/03/03 06:38:20;;;;;;;3.47;2.55;;;19.00;31.90;;;;;;5052859;28;20041;-48
2023/03/03 06:40:46;;;;;;;3.80;2.85;;;19.00;31.90;;;;;;5053625;28;20032;-45
2023/03/03 06:43:13;;;;;;;3.88;2.65;;;19.00;31.90;;;;;;5053869;28;20042;-50
2023/03/03 06:45:39;;;;;;;4.00;2.83;;;19.00;31.90;;;;;;5052150;28;20067;-49
2023/03/03 06:48:05;;;;;;;3.83;2.60;;;19.00;32.00;;;;;;5054432;28;20060;-53
2023/03/03 06:50:30;;;;;;;3.80;2.65;;;19.00;32.00;;;;;;5052054;28;20096;-51
2023/03/03 06:53:13;;;;;;;4.20;2.90;;;19.00;32.00;;;;;;5054221;28;20124;-50
2023/03/03 06:55:38;;;;;;;3.60;2.40;;;19.00;32.00;;;;;;5049967;28;20044;-51
2023/03/03 06:58:13;;;;;;;3.20;2.30;;;19.00;32.00;;;;;;5054100;28;20049;-52
2023/03/03 07:00:42;;;;;;;2.83;2.00;;;19.00;32.10;;;;;;5051613;28;20037;-51
2023/03/03 07:03:16;;;;;;;2.88;2.05;;;19.00;32.10;;;;;;5049942;28;20025;-53
2023/03/03 07:05:42;;;;;;;2.97;1.92;;;19.00;32.10;;;;;;5052939;28;20384;-52
2023/03/03 07:08:16;;;;;;;3.20;2.00;;;19.00;32.10;;;;;;5053588;28;20041;-46
2023/03/03 07:10:44;;;;;;;2.88;1.98;;;19.00;32.10;;;;;;5033111;28;20405;-53
2023/03/03 07:13:22;;;;;;;2.53;1.85;;;19.00;32.20;;;;;;5052557;28;20077;-51
2023/03/03 07:15:57;;;;;;;3.05;1.83;;;19.00;32.20;;;;;;5051626;28;20037;-52
2023/03/03 07:18:28;;;;;;;2.63;1.77;;;19.00;32.20;;;;;;5061383;28;20043;-53
2023/03/03 07:20:54;;;;;;;2.38;1.73;;;19.00;32.20;;;;;;5063819;28;20091;-55
2023/03/03 07:23:41;;;;;;;2.95;2.03;;;19.00;32.20;;;;;;5036709;28;20049;-52
2023/03/03 07:26:24;;;;;;;3.05;1.80;;;18.90;32.10;;;;;;5043292;28;20111;-53
2023/03/03 07:29:32;;;;;;;5.00;2.20;;;18.90;32.10;;;;;;5036079;28;20029;-53
2023/03/03 07:32:00;;;;;;;3.45;2.05;;;19.00;32.20;;;;;;5039606;28;20447;-51
2023/03/03 07:34:37;;;;;;;4.35;1.73;;;19.00;32.30;;;;;;5044815;28;20342;-51
2023/03/03 07:37:12;;;;;;;3.40;2.03;;;18.90;32.20;;;;;;5049906;28;20037;-50
2023/03/03 07:39:43;;;;;;;3.00;1.92;;;19.00;32.20;;;;;;5054486;28;20521;-49
2023/03/03 07:42:38;;;;;;;3.42;2.05;;;19.00;32.20;;;;;;5054274;28;20033;-50
2023/03/03 07:45:27;;;;;;;5.60;2.00;;;18.90;32.10;;;;;;5067278;28;20079;-53
2023/03/03 07:48:21;;;;;;;3.22;1.95;;;19.00;32.10;;;;;;5037075;28;20037;-55
2023/03/03 07:50:48;;;;;;;3.70;2.43;;;19.00;32.10;;;;;;5052864;28;20093;-48
2023/03/03 07:53:25;;;;;;;4.38;2.30;;;19.00;32.10;;;;;;5045405;28;20284;-50
2023/03/03 07:55:51;;;;;;;3.95;2.55;;;19.00;32.10;;;;;;5043702;28;20036;-52
2023/03/03 07:58:46;;;;;;;4.38;2.33;;;19.10;32.10;;;;;;5054991;28;20041;-53
2023/03/03 08:01:30;;;;;;;;;;;19.10;32.00;;;;;;5050511;28;20526;-52
2023/03/03 08:03:57;;;;;;;4.82;2.55;;;19.20;32.00;;;;;;5068591;28;19908;-49
2023/03/03 08:06:39;;;;;;;5.65;2.97;;;19.20;32.00;;;;;;5074886;28;20029;-52
2023/03/03 08:09:11;;;;;;;6.43;3.78;;;19.30;32.10;;;;;;5072788;28;20410;-49
2023/03/03 08:11:57;;;;;;;6.15;3.60;;;19.30;32.10;;;;;;5075010;28;20028;-49
2023/03/03 08:14:33;;;;;;;5.65;3.58;;;19.40;32.00;;;;;;5050845;28;20053;-49
2023/03/03 08:17:00;;;;;;;5.82;4.03;;;19.40;32.00;;;;;;5053333;28;20102;-54
2023/03/03 08:19:28;;;;;;;7.05;3.80;;;19.50;32.00;;;;;;5048653;28;20110;-53
2023/03/03 08:22:11;;;;;;;6.03;3.90;;;19.50;31.90;;;;;;5054908;28;20036;-47
2023/03/03 08:24:37;;;;;;;4.97;3.60;;;19.60;31.90;;;;;;5051243;28;20033;-54
2023/03/03 08:27:03;;;;;;;6.38;4.10;;;19.60;31.80;;;;;;5038828;28;20040;-50
2023/03/03 08:29:28;;;;;;;5.85;4.30;;;19.70;31.80;;;;;;5041915;28;20033;-52
2023/03/03 08:31:54;;;;;;;6.00;3.88;;;19.70;31.70;;;;;;5053606;28;20037;-49
2023/03/03 08:34:20;;;;;;;5.28;3.70;;;19.80;31.60;;;;;;5053346;28;20455;-49
2023/03/03 08:36:46;;;;;;;6.32;3.20;;;19.80;31.50;;;;;;5055190;28;20040;-53
2023/03/03 08:39:12;;;;;;;6.03;3.60;;;19.90;31.60;;;;;;5053991;28;20066;-52
2023/03/03 08:41:42;;;;;;;6.25;3.65;;;19.90;31.40;;;;;;5061159;28;20032;-50
2023/03/03 08:44:08;;;;;;;6.22;4.00;;;20.00;31.40;;;;;;5055175;28;20051;-50
2023/03/03 08:46:34;;;;;;;6.32;3.70;;;20.00;31.30;;;;;;5038898;28;20524;-50
2023/03/03 08:49:00;;;;;;;5.35;3.50;;;20.00;31.20;;;;;;5038332;28;20061;-53
2023/03/03 08:51:26;;;;;;;4.00;2.90;;;20.00;31.10;;;;;;5059545;28;20120;-52
2023/03/03 08:53:52;;;;;;;6.97;3.40;;;20.10;31.10;;;;;;5056796;28;20100;-53
2023/03/03 08:56:18;;;;;;;5.00;3.08;;;20.10;31.10;;;;;;5043083;28;20530;-51
2023/03/03 08:58:46;;;;;;;4.95;3.22;;;20.10;31.00;;;;;;5040207;28;20508;-52
2023/03/03 09:01:16;;;;;;;4.72;2.92;;;20.20;31.00;;;;;;5038070;28;20099;-50
2023/03/03 09:03:42;;;;;;;5.03;3.13;;;20.20;31.00;;;;;;5038280;28;20121;-51
2023/03/03 09:06:09;;;;;;;4.22;3.10;;;20.20;30.90;;;;;;5037790;28;20068;-51
2023/03/03 09:08:35;;;;;;;5.35;2.90;;;20.20;30.90;;;;;;5055133;28;20093;-48
2023/03/03 09:11:01;;;;;;;4.05;2.70;;;20.20;30.90;;;;;;5076936;28;20068;-50
2023/03/03 09:13:29;;;;;;;4.40;2.70;;;20.20;30.80;;;;;;5077698;28;20079;-51
2023/03/03 09:15:57;;;;;;;4.30;2.97;;;20.20;30.80;;;;;;5078103;28;20405;-49
2023/03/03 09:18:36;;;;;;;4.82;2.85;;;20.20;30.70;;;;;;5075130;28;20119;-49
2023/03/03 09:21:22;;;;;;;4.18;2.80;;;20.30;30.70;;;;;;5078069;28;20111;-49
2023/03/03 09:23:56;;;;;;;4.00;2.53;;;20.30;30.70;;;;;;5078074;28;20583;-54
2023/03/03 09:26:22;;;;;;;4.78;2.85;;;20.20;30.60;;;;;;5068985;28;20025;-51
2023/03/03 09:28:48;;;;;;;3.25;2.63;;;20.30;30.60;;;;;;5076762;28;20030;-51
2023/03/03 09:31:23;;;;;;;3.45;2.50;;;20.20;30.50;;;;;;5076830;28;20034;-49
2023/03/03 09:33:50;;;;;;;4.75;2.92;;;20.20;30.50;;;;;;5077628;28;20032;-51
2023/03/03 09:36:22;;;;;;;4.80;2.80;;;20.30;30.50;;;;;;5077554;28;20086;-49
2023/03/03 09:38:48;;;;;;;4.07;2.60;;;20.20;30.40;;;;;;5077380;28;20330;-50
2023/03/03 09:41:36;;;;;;;4.07;2.67;;;20.20;30.40;;;;;;5077241;28;20089;-51
2023/03/03 09:44:08;;;;;;;4.25;2.50;;;20.30;30.40;;;;;;5062064;28;20040;-49
2023/03/03 09:47:01;;;;;;;5.35;3.13;;;20.20;30.30;;;;;;5056857;28;20033;-49
2023/03/03 09:49:34;;;;;;;4.80;3.10;;;20.30;30.40;;;;;;5056308;28;20048;-53
2023/03/03 09:52:11;;;;;;;3.63;2.42;;;20.20;30.30;;;;;;5057738;28;20356;-49
2023/03/03 09:54:49;;;;;;;3.63;2.50;;;20.30;30.30;;;;;;5053356;28;20036;-49
2023/03/03 09:57:40;;;;;;;3.72;2.42;;;20.20;30.30;;;;;;5056100;28;20063;-52
2023/03/03 10:00:41;;;;;;;4.47;3.00;;;20.20;30.30;;;;;;5040710;28;20475;-52
2023/03/03 10:03:31;;;;;;;6.70;4.45;;;20.20;30.40;;;;;;5053524;28;20147;-48
2023/03/03 10:06:24;;;;;;;9.30;6.80;;;20.30;30.60;;;;;;5054606;28;20044;-51
2023/03/03 10:08:50;;;;;;;11.70;9.30;;;20.20;31.10;;;;;;5057791;28;20046;-53
2023/03/03 10:11:25;;;;;;;15.40;11.38;;;20.30;31.50;;;;;;5061567;28;20038;-54
2023/03/03 10:14:10;;;;;;;16.83;12.38;;;20.20;31.80;;;;;;5036653;28;20357;-54
2023/03/03 10:17:14;;;;;;;18.02;13.38;;;20.30;31.90;;;;;;5066324;28;20460;-50
2023/03/03 10:20:05;;;;;;;20.02;15.35;;;20.30;32.10;;;;;;5060471;28;20468;-51
2023/03/03 10:22:51;;;;;;;20.67;16.10;;;20.30;32.30;;;;;;5052890;28;20021;-47
2023/03/03 10:25:42;;;;;;;23.38;17.80;;;20.30;32.50;;;;;;5052646;28;20089;-53
2023/03/03 10:28:52;;;;;;;25.15;19.17;;;20.30;32.60;;;;;;5036452;28;20508;-53
2023/03/03 10:31:55;;;;;;;26.15;20.60;;;20.30;32.70;;;;;;5037142;28;20061;-56
2023/03/03 10:34:24;;;;;;;26.42;20.15;;;20.30;32.70;;;;;;5052674;28;20454;-54
2023/03/03 10:37:18;;;;;;;26.75;20.40;;;20.30;32.70;;;;;;5056436;28;20041;-54
2023/03/03 10:40:15;;;;;;;27.95;20.77;;;20.30;32.70;;;;;;5047435;28;20201;-51
2023/03/03 10:43:02;;;;;;;25.90;20.10;;;20.40;32.80;;;;;;5054991;28;20399;-53
2023/03/03 10:45:48;;;;;;;25.35;19.00;;;20.40;32.80;;;;;;5043483;28;20334;-50
2023/03/03 10:48:29;;;;;;;24.52;19.63;;;20.40;32.90;;;;;;5033746;28;20100;-50
2023/03/03 10:51:19;;;;;;;23.85;18.50;;;20.40;33.10;;;;;;5044497;28;20025;-47
2023/03/03 10:54:23;;;;;;;23.02;18.23;;;20.40;33.30;;;;;;5043096;28;20398;-53
2023/03/03 10:57:06;;;;;;;25.55;18.70;;;20.50;33.60;;;;;;5051020;28;20330;-54
2023/03/03 10:59:54;;;;;;;25.45;19.38;;;20.50;33.30;;;;;;5041668;28;20120;-53
2023/03/03 11:02:59;;;;;;;23.60;19.73;;;20.50;33.10;;;;;;5035165;28;20424;-48
2023/03/03 11:05:51;;;;;;;26.05;18.65;;;20.50;33.00;;;;;;5053078;28;20076;-48
2023/03/03 11:08:47;;;;;;;29.73;21.80;;;20.60;32.90;;;;;;5052748;28;20104;-49
2023/03/03 11:11:37;;;;;;;27.25;21.20;;;20.60;32.90;;;;;;5035474;28;20030;-49
2023/03/03 11:14:08;;;;;;;28.80;21.73;;;20.60;33.10;;;;;;5049550;28;20063;-50
2023/03/03 11:17:03;;;;;;;27.92;21.67;;;20.60;33.10;;;;;;5055582;28;20102;-48
2023/03/03 11:19:47;;;;;;;28.38;21.60;;;20.60;33.10;;;;;;5050075;28;20041;-50
2023/03/03 11:22:32;;;;;;;27.95;21.40;;;20.70;33.10;;;;;;5048388;28;20441;-51
2023/03/03 11:25:19;;;;;;;29.70;22.27;;;20.70;33.10;;;;;;5040870;28;20467;-47
2023/03/03 11:28:16;;;;;;;27.75;21.02;;;20.70;33.10;;;;;;5053661;28;20117;-53
2023/03/03 11:30:56;;;;;;;26.77;20.60;;;20.70;33.10;;;;;;5054899;28;20025;-51
2023/03/03 11:33:43;;;;;;;27.60;21.02;;;20.70;33.00;;;;;;5067396;28;20038;-49
2023/03/03 11:36:34;;;;;;;27.85;21.13;;;20.70;33.00;;;;;;5075526;28;20085;-50
2023/03/03 11:39:04;;;;;;;29.02;21.05;;;20.70;32.90;;;;;;5043447;28;20116;-53
2023/03/03 11:41:38;;;;;;;23.95;18.55;;;20.70;32.90;;;;;;5035177;28;20034;-52
2023/03/03 11:44:33;;;;;;;29.02;21.70;;;20.70;33.00;;;;;;5067211;28;20025;-53
2023/03/03 11:47:13;;;;;;;28.83;20.27;;;20.70;33.10;;;;;;5039582;28;20326;-52
2023/03/03 11:49:47;;;;;;;25.85;19.88;;;20.80;33.10;;;;;;5054778;28;20421;-54
2023/03/03 11:52:39;;;;;;;21.33;17.98;;;20.80;32.90;;;;;;5054790;28;20039;-53
2023/03/03 11:55:10;;;;;;;21.00;16.45;;;20.80;32.60;;;;;;5054646;28;20040;-53
2023/03/03 11:57:47;;;;;;;20.60;15.85;;;20.80;32.30;;;;;;5054037;28;20117;-49
2023/03/03 12:00:21;;;;;;;19.02;15.13;;;20.80;32.10;;;;;;5054539;28;20087;-53
2023/03/03 12:02:50;;;;;;;18.98;13.85;;;20.70;31.90;;;;;;5074979;28;20431;-50
2023/03/03 12:05:40;;;;;;;18.20;12.63;;;20.70;31.70;;;;;;5075124;28;20504;-48
2023/03/03 12:08:20;;;;;;;17.20;13.20;;;20.70;31.50;;;;;;5066257;28;20356;-48
2023/03/03 12:10:46;;;;;;;15.15;12.10;;;20.70;31.40;;;;;;5054439;28;20402;-50
2023/03/03 12:13:28;;;;;;;14.88;11.25;;;20.80;31.30;;;;;;5054429;28;20132;-50
2023/03/03 12:15:59;;;;;;;15.52;11.50;;;20.70;31.20;;;;;;5054030;28;20163;-49
2023/03/03 12:18:52;;;;;;;13.50;10.30;;;20.70;31.00;;;;;;5060253;28;20033;-51
2023/03/03 12:21:17;;;;;;;13.38;9.50;;;20.70;30.90;;;;;;5043459;28;20337;-51
2023/03/03 12:24:07;;;;;;;12.07;9.57;;;20.70;30.80;;;;;;5054657;28;20040;-51
2023/03/03 12:26:52;;;;;;;13.32;8.65;;;20.70;30.70;;;;;;5042841;28;20032;-52
2023/03/03 12:29:45;;;;;;;11.57;8.73;;;20.70;30.60;;;;;;5034263;28;20025;-54
2023/03/03 12:32:48;;;;;;;10.82;8.25;;;20.70;30.50;;;;;;5034895;28;20067;-53
2023/03/03 12:35:31;;;;;;;9.38;7.53;;;20.70;30.40;;;;;;5054462;28;20064;-51
2023/03/03 12:38:31;;;;;;;12.20;7.68;;;20.70;30.40;;;;;;5055292;28;20449;-49
2023/03/03 12:41:01;;;;;;;9.38;7.30;;;20.70;30.30;;;;;;5054355;28;20036;-55
2023/03/03 12:43:37;;;;;;;11.13;7.28;;;20.60;30.20;;;;;;5033756;28;20079;-53
2023/03/03 12:46:35;;;;;;;8.68;6.68;;;20.60;30.10;;;;;;5054514;28;20040;-50
2023/03/03 12:49:01;;;;;;;7.97;6.10;;;20.60;30.00;;;;;;5034278;28;20151;-52
2023/03/03 12:51:51;;;;;;;8.07;6.30;;;20.60;30.00;;;;;;5051710;28;20097;-52
2023/03/03 12:54:16;;;;;;;10.18;6.57;;;20.60;30.00;;;;;;5043181;28;20091;-50
2023/03/03 12:57:04;;;;;;;10.55;6.13;;;20.60;30.00;;;;;;5048221;28;20024;-50
2023/03/03 12:59:51;;;;;;;7.65;5.60;;;20.60;30.00;;;;;;5046569;28;20044;-52
2023/03/03 13:02:35;;;;;;;7.22;5.53;;;20.60;30.00;;;;;;5045652;28;20021;-49
2023/03/03 13:05:13;;;;;;;7.53;5.28;;;20.60;29.90;;;;;;5048733;28;20029;-47
2023/03/03 13:08:28;;;;;;;9.27;6.70;;;20.60;29.90;;;;;;5041448;28;20082;-51
2023/03/03 13:11:11;;;;;;;24.42;17.55;;;20.60;30.00;;;;;;4994979;28;20133;-52
2023/03/03 13:13:42;;;;;;;29.33;22.60;;;20.60;31.00;;;;;;5044280;28;20091;-48
2023/03/03 13:16:18;;;;;;;31.33;24.48;;;20.60;31.60;;;;;;5048422;28;20025;-50